Aérodrome :







RETROUVEZ-NOUS SUR...

 
LOGIN :

S'inscrire | Disclaimer

   EN    FR    IT 

 









Légende :    VFR   VFR Marginal   IFR   IFR Intensif   IFR Très Intensif
Visi : 
Plafond : 
>= 8 km
>= 3000ft
5 à 8 km
1000 à 3000 ft
1500m à 5 km
500 à 1000 ft
800 à 1500m
200 à 500 ft
< 800m
< 200 ft
Symboles :   Orages  Brouillard  Fortes neiges  Fortes précipitations  Vent > 20 kt






- Altitude de l'aérodrome : 215 ft
- Code IATA : MSS


KMSS - Massena International Richards Field

DERNIER METAR :
  • 181853Z AUTO 06013KT 10SM OVC080 M12/M17 A3019 RMK AO2 SLP236 T11221167

METARs EXPIRÉS :
  • 181753Z AUTO 08013G19KT 10SM OVC080 M12/M17 A3026 RMK AO2 SLP259 T11221172 11117 21172 58066
  • 181653Z AUTO 07013KT 10SM OVC085 M12/M17 A3033 RMK AO2 PRESFR SLP282 T11221167

TAF KMSS
Valide du 18 à 18h jusqu'au 19 à 18h UTC


181733Z 1818/1918 07012KT P6SM OVC080
FM182100 07013KT 1 1/2SM -SN BR OVC025
FM190800 05007KT 3/4SM -SN OVC008
FM191100 36007KT 1SM -SN BR OVC012
FM191400 34006KT 4SM -SHSN BR OVC012



MET'MAP, la Météo Aéronautique d'un coup d'oeil ! - Copyright ORBIFLY Décembre 2007 - Disclaimer

ORBIFLY MET'MAP TEAM :

Programmation & Développement : Alexandra Zaïnal
Sur une idée originale de : Baudouin d'Aumeries
Assistance à la programmation : Marc-Olivier Méhu
Soutien technique & logistique : Manuel Goepfert

Contact : metmap@orbifly.com




SOURCES & CREDITS :

   NOAA